createdAt,value
2022-12-26T00:00:31.413Z,5.57
2022-12-26T00:02:58.206Z,9.05
2022-12-26T00:05:24.793Z,5.30
2022-12-26T00:07:51.545Z,5.85
2022-12-26T00:10:18.287Z,6.63
2022-12-26T00:12:44.983Z,5.43
2022-12-26T00:15:11.719Z,7.93
2022-12-26T00:17:38.152Z,6.10
2022-12-26T00:20:05.220Z,7.07
2022-12-26T00:22:31.731Z,8.60
2022-12-26T00:24:58.182Z,5.75
2022-12-26T00:27:24.535Z,5.38
2022-12-26T00:29:50.998Z,5.95
2022-12-26T00:32:17.550Z,5.82
2022-12-26T00:34:44.040Z,6.80
2022-12-26T00:37:10.534Z,5.45
2022-12-26T00:39:36.956Z,7.50
2022-12-26T00:42:04.079Z,6.20
2022-12-26T00:44:30.440Z,4.68
2022-12-26T00:46:57.780Z,6.33
2022-12-26T00:49:24.364Z,5.88
2022-12-26T00:51:50.842Z,4.65
2022-12-26T00:54:18.115Z,4.05
2022-12-26T00:56:44.565Z,4.88
2022-12-26T00:59:11.282Z,5.43
2022-12-26T01:01:37.978Z,5.72
2022-12-26T01:04:04.826Z,5.80
2022-12-26T01:06:31.542Z,8.35
2022-12-26T01:08:59.470Z,6.22
2022-12-26T01:11:41.101Z,6.63
2022-12-26T01:14:14.768Z,5.70
2022-12-26T01:16:43.264Z,7.07
2022-12-26T01:19:11.937Z,6.15
2022-12-26T01:21:38.754Z,7.88
2022-12-26T01:24:06.475Z,9.90
2022-12-26T01:26:32.936Z,5.40
2022-12-26T01:28:59.347Z,6.57
2022-12-26T01:31:25.779Z,8.02
2022-12-26T01:33:52.274Z,7.40
2022-12-26T01:36:18.951Z,5.80
2022-12-26T01:38:45.680Z,6.65
2022-12-26T01:41:20.028Z,5.95
2022-12-26T01:43:59.047Z,7.68
2022-12-26T01:46:37.402Z,7.93
2022-12-26T01:49:19.893Z,4.90
2022-12-26T01:51:53.387Z,6.25
2022-12-26T01:54:40.773Z,6.75
2022-12-26T01:57:13.317Z,5.93
2022-12-26T01:59:41.366Z,5.97
2022-12-26T02:02:08.998Z,5.70
2022-12-26T02:04:59.928Z,6.65
2022-12-26T02:07:26.818Z,5.53
2022-12-26T02:09:53.766Z,6.05
2022-12-26T02:12:33.961Z,8.73
2022-12-26T02:15:10.419Z,6.00
2022-12-26T02:17:37.813Z,7.50
2022-12-26T02:20:17.349Z,6.68
2022-12-26T02:23:05.240Z,7.78
2022-12-26T02:25:50.232Z,8.25
2022-12-26T02:28:58.223Z,5.60
2022-12-26T02:32:06.401Z,6.18
2022-12-26T02:34:38.977Z,7.75
2022-12-26T02:37:52.678Z,6.68
2022-12-26T02:40:32.673Z,5.68
2022-12-26T02:43:21.000Z,5.63
2022-12-26T02:46:22.676Z,6.75
2022-12-26T02:48:52.173Z,6.50
2022-12-26T02:52:03.206Z,6.43
2022-12-26T02:55:04.498Z,6.38
2022-12-26T02:58:00.304Z,4.87
2022-12-26T03:00:46.671Z,5.85
2022-12-26T03:03:45.248Z,7.97
2022-12-26T03:06:38.639Z,8.60
2022-12-26T03:09:29.676Z,5.72
2022-12-26T03:12:26.111Z,8.23
2022-12-26T03:14:57.014Z,5.13
2022-12-26T03:17:49.803Z,5.68
2022-12-26T03:20:42.952Z,6.68
2022-12-26T03:23:16.096Z,6.05
2022-12-26T03:26:09.929Z,8.03
2022-12-26T03:28:36.553Z,6.28
2022-12-26T03:31:08.531Z,7.55
2022-12-26T03:33:56.516Z,5.88
2022-12-26T03:36:40.784Z,7.10
2022-12-26T03:39:54.106Z,7.67
2022-12-26T03:42:47.782Z,6.85
2022-12-26T03:45:45.951Z,5.72
2022-12-26T03:48:50.198Z,5.80
2022-12-26T03:51:54.053Z,5.65
2022-12-26T03:55:06.122Z,6.57
2022-12-26T03:57:57.591Z,5.88
2022-12-26T04:00:44.193Z,6.18
2022-12-26T04:03:32.411Z,5.20
2022-12-26T04:06:21.904Z,6.13
2022-12-26T04:12:40.681Z,11.15
2022-12-26T04:15:37.830Z,7.80
2022-12-26T04:18:35.903Z,5.95
2022-12-26T04:21:08.842Z,7.18
2022-12-26T04:24:01.508Z,8.03
2022-12-26T04:26:50.895Z,8.95
2022-12-26T04:29:36.155Z,7.70
2022-12-26T04:32:47.318Z,5.90
2022-12-26T04:36:01.517Z,8.25
2022-12-26T04:38:52.837Z,6.33
2022-12-26T04:41:39.300Z,10.40
2022-12-26T04:44:08.757Z,6.47
2022-12-26T04:46:39.212Z,7.32
2022-12-26T04:49:30.396Z,5.68
2022-12-26T04:51:58.061Z,11.77
2022-12-26T04:54:24.841Z,6.40
2022-12-26T04:56:51.421Z,6.00
2022-12-26T04:59:18.297Z,5.78
2022-12-26T05:02:03.228Z,6.18
2022-12-26T05:04:48.268Z,6.63
2022-12-26T05:07:43.962Z,5.85
2022-12-26T05:10:20.830Z,5.72
2022-12-26T05:12:47.680Z,6.03
2022-12-26T05:15:14.952Z,4.47
2022-12-26T05:18:00.043Z,5.17
2022-12-26T05:20:49.807Z,8.10
2022-12-26T05:23:36.907Z,6.35
2022-12-26T05:26:23.315Z,7.15
2022-12-26T05:28:57.749Z,6.85
2022-12-26T05:31:26.226Z,5.90
2022-12-26T05:34:07.767Z,8.10
2022-12-26T05:36:56.722Z,6.47
2022-12-26T05:39:23.181Z,5.93
2022-12-26T05:41:49.738Z,6.93
2022-12-26T05:44:16.173Z,8.07
2022-12-26T05:46:43.021Z,6.60
2022-12-26T05:49:10.117Z,5.07
2022-12-26T05:51:36.607Z,6.40
2022-12-26T05:54:03.394Z,10.60
2022-12-26T05:56:30.339Z,6.90
2022-12-26T05:59:00.116Z,6.15
2022-12-26T06:01:28.662Z,5.28
2022-12-26T06:03:57.706Z,5.78
2022-12-26T06:06:25.396Z,7.00
2022-12-26T06:08:53.822Z,7.03
2022-12-26T06:11:20.896Z,6.47
2022-12-26T06:13:47.356Z,6.43
2022-12-26T06:16:16.663Z,5.97
2022-12-26T06:18:43.499Z,6.75
2022-12-26T06:21:14.346Z,5.40
2022-12-26T06:23:41.306Z,6.00
2022-12-26T06:26:10.204Z,6.82
2022-12-26T06:28:37.577Z,5.63
2022-12-26T06:31:10.505Z,7.78
2022-12-26T06:33:37.946Z,5.70
2022-12-26T06:36:07.239Z,4.85
2022-12-26T06:38:34.863Z,5.35
2022-12-26T06:41:03.971Z,4.25
2022-12-26T06:43:30.425Z,8.10
2022-12-26T06:46:01.066Z,6.73
2022-12-26T06:48:28.452Z,5.20
2022-12-26T06:50:54.837Z,9.15
2022-12-26T06:53:22.423Z,5.55
2022-12-26T06:55:49.350Z,5.45
2022-12-26T06:58:16.801Z,5.63
2022-12-26T07:00:43.910Z,6.50
2022-12-26T07:03:11.331Z,6.00
2022-12-26T07:05:38.841Z,5.55
2022-12-26T07:08:05.655Z,4.53
2022-12-26T07:10:36.721Z,5.17
2022-12-26T07:13:03.304Z,6.70
2022-12-26T07:15:31.553Z,5.93
2022-12-26T07:17:58.050Z,5.93
2022-12-26T07:20:24.470Z,5.97
2022-12-26T07:22:50.869Z,5.53
2022-12-26T07:25:17.538Z,4.70
2022-12-26T07:27:44.021Z,6.18
2022-12-26T07:30:10.820Z,4.55
2022-12-26T07:32:37.207Z,5.57
2022-12-26T07:35:03.857Z,5.87
2022-12-26T07:37:30.227Z,6.90
2022-12-26T07:39:59.072Z,7.35
2022-12-26T07:42:26.038Z,5.78
2022-12-26T07:44:52.463Z,5.03
2022-12-26T07:47:18.917Z,5.20
2022-12-26T07:49:45.306Z,3.80
2022-12-26T07:52:11.799Z,4.53
2022-12-26T07:54:38.227Z,3.72
2022-12-26T07:57:38.061Z,5.00
2022-12-26T07:59:53.579Z,4.23
2022-12-26T08:02:20.468Z,5.68
2022-12-26T08:04:47.227Z,5.03
2022-12-26T08:07:13.609Z,7.82
2022-12-26T08:09:42.801Z,4.40
2022-12-26T08:12:09.391Z,3.13
2022-12-26T08:14:37.676Z,2.72
2022-12-26T08:17:04.194Z,3.30
2022-12-26T08:19:30.694Z,4.90
2022-12-26T08:21:57.157Z,3.80
2022-12-26T08:24:23.938Z,4.40
2022-12-26T08:26:50.457Z,4.25
2022-12-26T08:29:16.917Z,3.55
2022-12-26T08:31:43.324Z,3.35
2022-12-26T08:34:09.902Z,4.35
2022-12-26T08:36:36.488Z,4.17
2022-12-26T08:39:03.021Z,4.70
2022-12-26T08:41:29.372Z,3.42
2022-12-26T08:46:42.205Z,2.67
2022-12-26T08:49:08.628Z,3.90
2022-12-26T08:51:35.199Z,3.00
2022-12-26T08:54:01.937Z,3.88
2022-12-26T08:56:28.992Z,2.50
2022-12-26T08:58:55.431Z,3.05
2022-12-26T09:01:25.891Z,5.17
2022-12-26T09:03:54.178Z,7.00
2022-12-26T09:06:21.267Z,4.20
2022-12-26T09:08:48.077Z,3.00
2022-12-26T09:11:17.639Z,3.47
2022-12-26T09:13:45.662Z,14.50
2022-12-26T09:16:14.919Z,6.35
2022-12-26T09:18:42.047Z,3.65
2022-12-26T09:21:10.288Z,3.42
2022-12-26T09:23:37.202Z,4.13
2022-12-26T09:26:06.375Z,4.13
2022-12-26T09:28:33.446Z,3.22
2022-12-26T09:31:01.839Z,2.90
2022-12-26T09:33:29.576Z,2.70
2022-12-26T09:36:01.576Z,3.80
2022-12-26T09:38:30.455Z,2.80
2022-12-26T09:41:30.696Z,2.88
2022-12-26T09:44:16.270Z,4.22
2022-12-26T09:46:48.710Z,3.38
2022-12-26T09:49:15.054Z,3.17
2022-12-26T09:51:44.738Z,2.87
2022-12-26T09:54:33.131Z,3.30
2022-12-26T09:57:04.610Z,3.17
2022-12-26T09:59:43.356Z,3.38
2022-12-26T10:02:17.971Z,3.80
2022-12-26T10:04:44.708Z,3.27
2022-12-26T10:07:32.263Z,3.95
2022-12-26T10:10:09.246Z,4.60
2022-12-26T10:13:03.555Z,4.35
2022-12-26T10:15:45.777Z,3.40
2022-12-26T10:18:25.731Z,2.70
2022-12-26T10:21:04.406Z,2.50
2022-12-26T10:23:36.777Z,2.60
2022-12-26T10:26:25.087Z,3.72
2022-12-26T10:29:13.745Z,2.50
2022-12-26T10:31:48.976Z,2.40
2022-12-26T10:34:27.576Z,3.72
2022-12-26T10:37:18.306Z,2.80
2022-12-26T10:40:16.659Z,3.08
2022-12-26T10:42:46.391Z,2.70
2022-12-26T10:45:18.417Z,4.77
2022-12-26T10:47:50.749Z,4.05
2022-12-26T10:50:28.018Z,3.55
2022-12-26T10:52:55.679Z,2.88
2022-12-26T10:55:31.794Z,2.70
2022-12-26T10:58:06.709Z,3.07
2022-12-26T11:00:34.562Z,2.63
2022-12-26T11:03:11.473Z,2.67
2022-12-26T11:08:46.232Z,4.25
2022-12-26T11:11:45.855Z,2.80
2022-12-26T11:14:33.706Z,2.90
2022-12-26T11:17:04.954Z,3.30
2022-12-26T11:19:35.101Z,2.80
2022-12-26T11:22:28.921Z,5.00
2022-12-26T11:25:20.817Z,4.80
2022-12-26T11:27:56.592Z,3.47
2022-12-26T11:30:23.166Z,5.60
2022-12-26T11:33:14.858Z,6.00
2022-12-26T11:35:51.504Z,2.95
2022-12-26T11:38:45.766Z,2.73
2022-12-26T11:41:31.627Z,3.00
2022-12-26T11:44:22.219Z,2.72
2022-12-26T11:47:07.299Z,2.70
2022-12-26T11:49:37.712Z,2.92
2022-12-26T11:52:42.092Z,2.43
2022-12-26T11:55:33.519Z,2.88
2022-12-26T11:58:09.509Z,3.42
2022-12-26T12:00:41.926Z,2.63
2022-12-26T12:03:14.692Z,3.50
2022-12-26T12:06:00.439Z,5.47
2022-12-26T12:09:02.205Z,3.75
2022-12-26T12:11:50.713Z,6.25
2022-12-26T12:14:50.874Z,4.97
2022-12-26T12:17:26.391Z,5.65
2022-12-26T12:20:31.916Z,4.07
2022-12-26T12:23:16.812Z,3.72
2022-12-26T12:25:46.102Z,5.93
2022-12-26T12:28:21.670Z,4.38
2022-12-26T12:30:57.040Z,4.35
2022-12-26T12:33:36.029Z,9.33
2022-12-26T12:36:08.305Z,6.18
2022-12-26T12:38:56.391Z,7.10
2022-12-26T12:41:37.941Z,5.90
2022-12-26T12:44:48.518Z,3.67
2022-12-26T12:47:37.830Z,6.23
2022-12-26T12:50:22.796Z,5.78
2022-12-26T12:53:10.534Z,5.38
2022-12-26T12:55:40.057Z,5.22
2022-12-26T12:58:23.250Z,10.95
2022-12-26T13:00:59.286Z,8.63
2022-12-26T13:04:08.816Z,10.55
2022-12-26T13:06:41.825Z,9.35
2022-12-26T13:09:18.782Z,16.17
2022-12-26T13:11:51.720Z,12.50
2022-12-26T13:14:23.717Z,10.00
2022-12-26T13:17:02.530Z,11.63
2022-12-26T13:19:41.503Z,12.55
2022-12-26T13:22:16.947Z,10.68
2022-12-26T13:24:46.661Z,8.63
2022-12-26T13:27:22.292Z,10.50
2022-12-26T13:29:49.395Z,8.93
2022-12-26T13:32:29.479Z,7.20
2022-12-26T13:34:58.435Z,9.00
2022-12-26T13:37:40.151Z,9.65
2022-12-26T13:40:12.720Z,12.60
2022-12-26T13:43:10.516Z,4.85
2022-12-26T13:45:43.256Z,3.63
2022-12-26T13:48:15.793Z,3.00
2022-12-26T13:50:56.075Z,5.85
2022-12-26T13:53:26.107Z,4.43
2022-12-26T13:56:23.238Z,3.17
2022-12-26T13:59:08.082Z,2.70
2022-12-26T14:01:43.068Z,2.45
2022-12-26T14:04:41.012Z,3.35
2022-12-26T14:07:19.729Z,3.73
2022-12-26T14:09:58.587Z,2.65
2022-12-26T14:12:50.040Z,3.55
2022-12-26T14:15:38.557Z,2.00
2022-12-26T14:18:42.278Z,2.47
2022-12-26T14:21:33.818Z,2.40
2022-12-26T14:24:09.493Z,4.25
2022-12-26T14:26:54.234Z,3.33
2022-12-26T14:29:40.149Z,4.65
2022-12-26T14:32:32.469Z,2.33
2022-12-26T14:35:28.557Z,2.40
2022-12-26T14:38:22.954Z,2.50
2022-12-26T14:41:05.032Z,3.65
2022-12-26T14:43:31.555Z,3.15
2022-12-26T14:45:58.978Z,4.25
2022-12-26T14:48:28.465Z,1.90
2022-12-26T14:51:16.098Z,3.25
2022-12-26T14:53:44.978Z,3.83
2022-12-26T14:56:18.069Z,3.15
2022-12-26T14:58:45.242Z,2.45
2022-12-26T15:01:20.679Z,3.07
2022-12-26T15:04:08.825Z,2.15
2022-12-26T15:06:47.443Z,2.60
2022-12-26T15:09:32.973Z,3.72
2022-12-26T15:12:20.819Z,5.25
2022-12-26T15:15:26.789Z,4.43
2022-12-26T15:18:09.476Z,4.15
2022-12-26T15:21:00.333Z,2.65
2022-12-26T15:23:57.957Z,3.20
2022-12-26T15:26:56.831Z,3.70
2022-12-26T15:29:35.399Z,4.07
2022-12-26T15:32:46.225Z,3.72
2022-12-26T15:35:41.822Z,4.95
2022-12-26T15:38:39.956Z,5.22
2022-12-26T15:41:14.407Z,5.57
2022-12-26T15:43:54.913Z,3.87
2022-12-26T15:46:27.610Z,4.10
2022-12-26T15:49:32.860Z,2.85
2022-12-26T15:52:13.831Z,3.13
2022-12-26T15:54:58.976Z,4.38
2022-12-26T15:57:50.914Z,3.40
2022-12-26T16:00:22.502Z,3.63
2022-12-26T16:03:18.233Z,4.63
2022-12-26T16:05:56.273Z,3.80
2022-12-26T16:08:48.726Z,3.58
2022-12-26T16:11:20.886Z,3.97
2022-12-26T16:14:04.438Z,4.05
2022-12-26T16:16:35.810Z,2.95
2022-12-26T16:19:30.558Z,2.92
2022-12-26T16:22:21.517Z,4.53
2022-12-26T16:24:51.406Z,5.30
2022-12-26T16:27:20.533Z,3.17
2022-12-26T16:29:50.073Z,5.63
2022-12-26T16:32:20.348Z,5.20
2022-12-26T16:34:48.123Z,5.00
2022-12-26T16:37:28.398Z,4.23
2022-12-26T16:40:06.475Z,5.75
2022-12-26T16:42:33.140Z,4.70
2022-12-26T16:45:00.668Z,2.72
2022-12-26T16:47:30.180Z,4.32
2022-12-26T16:49:57.958Z,5.43
2022-12-26T16:53:11.520Z,3.00
2022-12-26T16:55:40.147Z,4.13
2022-12-26T16:58:18.256Z,3.28
2022-12-26T17:01:00.998Z,6.28
2022-12-26T17:03:40.969Z,4.37
2022-12-26T17:06:30.541Z,4.55
2022-12-26T17:08:59.653Z,3.80
2022-12-26T17:11:33.289Z,12.57
2022-12-26T17:14:01.256Z,6.22
2022-12-26T17:16:30.795Z,5.90
2022-12-26T17:19:17.083Z,6.00
2022-12-26T17:22:15.172Z,3.67
2022-12-26T17:24:42.548Z,3.10
2022-12-26T17:27:16.546Z,3.60
2022-12-26T17:30:01.037Z,2.57
2022-12-26T17:32:32.920Z,5.20
2022-12-26T17:35:23.444Z,5.03
2022-12-26T17:37:55.310Z,3.85
2022-12-26T17:40:37.375Z,3.58
2022-12-26T17:43:20.588Z,2.73
2022-12-26T17:45:47.339Z,2.88
2022-12-26T17:48:13.896Z,4.47
2022-12-26T17:50:46.576Z,4.68
2022-12-26T17:53:12.967Z,4.20
2022-12-26T17:55:40.007Z,6.47
2022-12-26T17:58:13.064Z,4.50
2022-12-26T18:00:40.924Z,5.00
2022-12-26T18:03:07.453Z,4.20
2022-12-26T18:05:34.441Z,4.75
2022-12-26T18:08:01.443Z,5.50
2022-12-26T18:10:31.470Z,5.28
2022-12-26T18:12:58.979Z,4.43
2022-12-26T18:15:27.874Z,5.07
2022-12-26T18:17:54.543Z,17.45
2022-12-26T18:20:28.265Z,7.50
2022-12-26T18:22:55.858Z,6.00
2022-12-26T18:25:29.881Z,6.47
2022-12-26T18:27:56.407Z,5.85
2022-12-26T18:30:25.333Z,5.90
2022-12-26T18:32:54.812Z,4.43
2022-12-26T18:35:21.652Z,4.38
2022-12-26T18:37:52.144Z,5.65
2022-12-26T18:40:29.444Z,6.50
2022-12-26T18:42:56.527Z,4.32
2022-12-26T18:45:23.731Z,5.80
2022-12-26T18:47:50.518Z,7.75
2022-12-26T18:50:18.255Z,8.07
2022-12-26T18:52:48.621Z,6.53
2022-12-26T18:55:18.208Z,5.50
2022-12-26T18:57:45.100Z,5.43
2022-12-26T19:00:14.583Z,7.65
2022-12-26T19:02:41.746Z,4.82
2022-12-26T19:05:19.381Z,6.20
2022-12-26T19:07:48.463Z,8.65
2022-12-26T19:10:17.933Z,7.63
2022-12-26T19:12:44.881Z,7.07
2022-12-26T19:15:12.464Z,5.65
2022-12-26T19:17:45.091Z,8.10
2022-12-26T19:20:21.574Z,5.10
2022-12-26T19:22:49.723Z,6.20
2022-12-26T19:25:17.824Z,10.65
2022-12-26T19:27:45.313Z,8.50
2022-12-26T19:30:14.981Z,6.25
2022-12-26T19:32:43.203Z,5.35
2022-12-26T19:35:12.925Z,4.47
2022-12-26T19:37:40.069Z,6.03
2022-12-26T19:40:07.680Z,7.30
2022-12-26T19:42:39.978Z,7.53
2022-12-26T19:45:09.490Z,6.60
2022-12-26T19:47:36.169Z,7.27
2022-12-26T19:50:04.724Z,4.85
2022-12-26T19:52:31.370Z,6.85
2022-12-26T19:54:57.947Z,8.02
2022-12-26T19:57:24.443Z,9.07
2022-12-26T19:59:53.085Z,7.17
2022-12-26T20:02:19.795Z,7.22
2022-12-26T20:04:46.685Z,5.45
2022-12-26T20:07:16.859Z,7.20
2022-12-26T20:09:46.141Z,6.20
2022-12-26T20:12:12.575Z,5.93
2022-12-26T20:14:41.465Z,8.32
2022-12-26T20:17:12.307Z,6.82
2022-12-26T20:19:39.317Z,6.13
2022-12-26T20:22:06.498Z,6.72
2022-12-26T20:24:33.637Z,7.77
2022-12-26T20:27:00.065Z,6.90
2022-12-26T20:29:26.619Z,7.70
2022-12-26T20:31:55.285Z,4.97
2022-12-26T20:34:24.201Z,5.45
2022-12-26T20:36:53.625Z,6.63
2022-12-26T20:39:22.256Z,6.30
2022-12-26T20:41:48.894Z,6.53
2022-12-26T20:44:16.938Z,8.90
2022-12-26T20:46:44.427Z,7.18
2022-12-26T20:49:11.444Z,7.80
2022-12-26T20:51:40.612Z,7.38
2022-12-26T20:54:08.925Z,8.70
2022-12-26T20:56:36.942Z,9.35
2022-12-26T20:59:05.059Z,11.40
2022-12-26T21:01:35.188Z,10.60
2022-12-26T21:04:02.282Z,10.63
2022-12-26T21:06:39.239Z,10.90
2022-12-26T21:09:06.576Z,9.48
2022-12-26T21:11:38.175Z,11.13
2022-12-26T21:14:08.391Z,10.27
2022-12-26T21:16:58.580Z,9.35
2022-12-26T21:19:29.260Z,11.32
2022-12-26T21:21:56.637Z,12.77
2022-12-26T21:24:26.570Z,12.70
2022-12-26T21:26:55.864Z,10.57
2022-12-26T21:29:30.563Z,11.68
2022-12-26T21:31:57.751Z,12.73
2022-12-26T21:34:29.340Z,12.75
2022-12-26T21:37:15.774Z,16.00
2022-12-26T21:39:51.725Z,19.30
2022-12-26T21:42:18.537Z,14.85
2022-12-26T21:44:45.032Z,11.75
2022-12-26T21:47:12.345Z,8.95
2022-12-26T21:49:38.738Z,15.55
2022-12-26T21:52:10.936Z,10.63
2022-12-26T21:54:56.154Z,11.38
2022-12-26T21:57:27.787Z,13.27
2022-12-26T21:59:57.305Z,13.48
2022-12-26T22:02:54.365Z,17.52
2022-12-26T22:05:29.351Z,11.37
2022-12-26T22:11:05.536Z,12.35
2022-12-26T22:13:49.201Z,17.35
2022-12-26T22:16:18.434Z,15.63
2022-12-26T22:18:47.092Z,12.70
2022-12-26T22:21:23.677Z,11.98
2022-12-26T22:23:51.511Z,13.23
2022-12-26T22:26:22.800Z,18.25
2022-12-26T22:28:51.683Z,12.38
2022-12-26T22:31:20.208Z,14.47
2022-12-26T22:33:56.366Z,14.05
2022-12-26T22:36:22.899Z,17.02
2022-12-26T22:38:51.819Z,11.15
2022-12-26T22:41:18.405Z,11.45
2022-12-26T22:43:48.145Z,15.50
2022-12-26T22:46:15.090Z,9.32
2022-12-26T22:48:42.010Z,13.10
2022-12-26T22:51:09.756Z,8.27
2022-12-26T22:53:36.146Z,14.15
2022-12-26T22:56:06.859Z,12.53
2022-12-26T22:58:36.546Z,10.45
2022-12-26T23:01:08.107Z,9.93
2022-12-26T23:03:34.647Z,10.82
2022-12-26T23:06:04.532Z,9.77
2022-12-26T23:08:31.250Z,8.87
2022-12-26T23:10:58.664Z,9.93
2022-12-26T23:13:30.892Z,7.90
2022-12-26T23:16:13.334Z,21.00
2022-12-26T23:19:08.512Z,8.45
2022-12-26T23:21:39.144Z,12.30
2022-12-26T23:24:16.254Z,15.30
2022-12-26T23:26:45.545Z,14.27
2022-12-26T23:29:35.554Z,8.95
2022-12-26T23:32:02.555Z,9.50
2022-12-26T23:34:32.152Z,8.73
2022-12-26T23:37:08.980Z,8.38
2022-12-26T23:39:41.305Z,10.63
2022-12-26T23:42:07.963Z,5.85
2022-12-26T23:44:40.529Z,6.65
2022-12-26T23:47:11.375Z,8.77
2022-12-26T23:49:40.831Z,7.93
2022-12-26T23:52:07.277Z,12.73
2022-12-26T23:54:39.340Z,9.55
2022-12-26T23:57:05.803Z,10.05
2022-12-26T23:59:32.227Z,9.13
